KOS weather

Sihanoukville International Airport
Sihanukville, Xrong Preah Sihanouk, Cambodia

Public forecast

Using degrees Celsius for public forecast. Weather courtesy of forecast.io.

Closest aviation weather report (METAR) to Sihanoukville International Airport

Closest report is Phu Quoc International Airport, 32.4 nm (60.0 km) SE. Retrieved 2019/10/23 07:30 UTC (0 seconds ago):

VVPQ 230730Z 21004KT 9999 SCT015 31/25 Q1007 NOSIG

Aviation forecast (TAF) for Sihanoukville International Airport

Retrieved 2019/10/23 06:00 UTC (1 hour ago):

TAF VDSV 230500Z 2306/2324 21007KT 9999 SCT017 SCT040 TEMPO 2307/2312 SCT015 FEW017CB